Time;durP1;ratioP1;P1;durP2;ratioP2;P2;SDS_P1;SDS_P2;PMS_P1;PMS_P2;Temp;Humidity;BMP_temperature;BMP_pressure;BME280_temperature;BME280_humidity;BME280_pressure;Samples;Min_cycle;Max_cycle;Signal;HPM_P1;HPM_P2
2022/05/30 00:00:54;;;;;;;10.90;4.78;;;;;;;11.50;59.23;99756.98;2034640;87;29484;-74
2022/05/30 00:03:56;;;;;;;10.50;4.65;;;;;;;11.49;59.25;99754.41;2034544;87;31855;-73
2022/05/30 00:06:58;;;;;;;10.90;5.45;;;;;;;11.48;59.37;99756.71;2034540;87;32950;-73
2022/05/30 00:10:00;;;;;;;10.68;5.22;;;;;;;11.46;59.24;99757.28;2034624;87;30205;-74
2022/05/30 00:13:02;;;;;;;8.18;4.95;;;;;;;11.47;59.38;99748.28;2013026;88;28186;-74
2022/05/30 00:16:17;;;;;;;9.78;5.37;;;;;;;11.49;59.59;99750.39;2003329;88;28722;-73
2022/05/30 00:19:19;;;;;;;;;;;;;;;11.51;59.66;99749.33;2002715;89;31042;-73
2022/05/30 00:22:20;;;;;;;8.98;5.25;;;;;;;11.51;60.15;99747.98;2013059;86;33096;-75
2022/05/30 00:25:22;;;;;;;11.75;5.42;;;;;;;11.48;59.93;99752.69;2060974;84;29330;-74
2022/05/30 00:28:26;;;;;;;10.58;5.33;;;;;;;11.46;59.76;99746.09;2059677;86;27730;-74
2022/05/30 00:31:28;;;;;;;14.28;5.92;;;;;;;11.49;59.80;99745.03;2060323;86;28687;-73
2022/05/30 00:34:29;;;;;;;14.47;5.80;;;;;;;11.51;59.85;99745.80;2060481;86;31967;-74
2022/05/30 00:37:31;;;;;;;11.22;5.25;;;;;;;11.52;59.98;99744.34;2060655;86;32949;-74
2022/05/30 00:40:35;;;;;;;10.75;6.00;;;;;;;11.53;59.97;99746.56;2025365;87;29489;-74
2022/05/30 00:43:40;;;;;;;14.53;6.00;;;;;;;11.53;60.22;99746.56;2060350;86;27640;-74
2022/05/30 00:46:42;;;;;;;7.95;5.03;;;;;;;11.54;60.38;99747.80;2060393;86;28722;-74
2022/05/30 00:49:46;;;;;;;11.00;6.87;;;;;;;11.54;60.59;99741.09;2060942;86;31184;-74
2022/05/30 00:52:48;;;;;;;9.50;5.62;;;;;;;11.55;60.46;99741.48;2061244;86;32975;-69
2022/05/30 00:55:50;;;;;;;14.03;6.75;;;;;;;11.57;60.46;99735.16;2029881;87;29225;-68
2022/05/30 00:58:52;;;;;;;15.28;6.53;;;;;;;11.54;60.37;99730.36;2066413;86;28257;-70
2022/05/30 01:01:54;;;;;;;12.20;6.33;;;;;;;11.55;60.51;99727.22;2066351;85;29478;-73
2022/05/30 01:08:16;;;;;;;11.30;6.30;;;;;;;11.52;60.46;99726.06;2066473;85;33152;-72
2022/05/30 01:11:18;;;;;;;13.48;6.20;;;;;;;11.49;60.52;99723.56;2066642;86;30160;-73
2022/05/30 01:14:21;;;;;;;12.70;5.78;;;;;;;11.46;60.85;99719.73;2030627;87;27677;-74
2022/05/30 01:17:23;;;;;;;10.45;5.87;;;;;;;11.43;60.68;99725.28;2066663;86;28864;-73
2022/05/30 01:20:59;;;;;;;10.30;4.70;;;;;;;11.39;60.68;99717.45;2066798;86;31013;-74
2022/05/30 01:24:23;;;;;;;;;;;;;;;11.42;60.85;99712.86;2066054;85;33761;-75
2022/05/30 01:27:51;;;;;;;9.38;4.65;;;;;;;11.44;61.18;99710.92;2081278;85;29387;-70
2022/05/30 01:30:53;;;;;;;12.00;5.03;;;;;;;11.45;61.00;99720.23;2081335;85;27715;-74
2022/05/30 01:33:54;;;;;;;9.58;5.12;;;;;;;11.44;61.20;99717.16;2081408;85;28886;-72
2022/05/30 01:36:56;;;;;;;13.00;5.37;;;;;;;11.43;60.94;99713.21;2082064;85;31684;-74
2022/05/30 01:39:58;;;;;;;8.58;4.85;;;;;;;11.44;60.99;99706.43;2081869;85;33190;-73
2022/05/30 01:43:00;;;;;;;10.72;5.15;;;;;;;11.45;60.96;99704.59;2082258;85;29469;-73
2022/05/30 01:46:08;;;;;;;9.50;5.60;;;;;;;11.46;60.93;99695.13;2082295;85;28236;-74
2022/05/30 01:49:10;;;;;;;9.08;4.67;;;;;;;11.48;60.95;99701.72;2082130;85;29436;-73
2022/05/30 01:52:11;;;;;;;8.90;5.30;;;;;;;11.49;60.96;99701.65;2100077;84;31015;-73
2022/05/30 01:55:13;;;;;;;11.50;5.10;;;;;;;11.49;60.92;99703.45;2106942;84;32931;-72
2022/05/30 01:58:15;;;;;;;10.48;5.28;;;;;;;11.50;60.95;99711.88;2106923;84;30428;-73
2022/05/30 02:01:21;;;;;;;8.13;5.03;;;;;;;11.50;61.02;99706.52;2106943;84;27743;-70
2022/05/30 02:04:23;;;;;;;8.35;4.90;;;;;;;11.50;61.02;99706.52;2106829;84;29553;-71
2022/05/30 02:07:25;;;;;;;9.38;4.65;;;;;;;11.49;61.10;99702.11;2107023;84;31195;-72
2022/05/30 02:10:27;;;;;;;9.20;5.47;;;;;;;11.48;61.17;99707.97;2106767;84;33070;-71
2022/05/30 02:13:33;;;;;;;8.03;4.90;;;;;;;11.48;61.26;99713.33;2106216;84;30107;-71
2022/05/30 02:20:12;;;;;;;11.22;6.62;;;;;;;11.49;61.45;99710.16;2105234;84;27686;-74
2022/05/30 02:23:29;;;;;;;9.33;5.30;;;;;;;11.46;61.37;99714.37;2081860;84;27835;-74
2022/05/30 02:26:42;;;;;;;15.70;5.40;;;;;;;11.44;61.44;99713.13;2084715;84;27945;-73
2022/05/30 02:29:53;;;;;;;10.72;4.90;;;;;;;11.43;61.59;99711.87;2085965;85;27746;-72
2022/05/30 02:36:38;;;;;;;8.03;4.97;;;;;;;11.39;61.41;99714.77;2084581;85;28091;-70
2022/05/30 02:39:31;;;;;;;9.93;4.90;;;;;;;11.37;61.55;99715.80;2084776;85;27715;-73
2022/05/30 02:42:33;;;;;;;9.18;5.00;;;;;;;11.35;61.58;99719.94;2085375;85;32991;-71
2022/05/30 02:45:40;;;;;;;12.98;4.58;;;;;;;11.34;61.67;99719.55;2084750;85;28283;-70
2022/05/30 02:48:45;;;;;;;9.43;4.92;;;;;;;11.34;61.76;99716.88;2085401;85;27687;-70
2022/05/30 02:51:51;;;;;;;14.50;5.80;;;;;;;11.34;61.77;99707.95;2082569;84;27782;-72
2022/05/30 02:54:55;;;;;;;8.43;4.95;;;;;;;11.33;61.86;99710.27;2081944;84;30473;-72
2022/05/30 02:58:05;;;;;;;9.23;4.80;;;;;;;11.32;61.92;99708.55;2081514;85;32971;-71
2022/05/30 03:01:09;;;;;;;10.10;5.15;;;;;;;11.31;61.94;99713.03;2079171;85;29399;-71
2022/05/30 03:04:19;;;;;;;9.78;6.00;;;;;;;11.30;61.84;99711.80;2095123;84;27807;-72
2022/05/30 03:07:23;;;;;;;6.53;4.53;;;;;;;11.30;61.98;99720.69;2064605;84;27713;-71
2022/05/30 03:10:25;;;;;;;8.53;5.33;;;;;;;11.28;62.08;99718.58;2101572;84;30451;-74
2022/05/30 03:13:27;;;;;;;8.33;5.05;;;;;;;11.29;62.08;99724.82;2101908;84;33615;-73
2022/05/30 03:16:29;;;;;;;8.90;4.58;;;;;;;11.29;62.16;99717.63;2101744;84;28933;-72
2022/05/30 03:19:31;;;;;;;8.53;5.28;;;;;;;11.28;61.94;99717.23;2102162;84;27713;-73
2022/05/30 03:22:32;;;;;;;9.15;4.80;;;;;;;11.29;62.03;99724.82;2110748;84;28766;-73
2022/05/30 03:25:34;;;;;;;5.97;4.03;;;;;;;11.30;62.03;99725.20;2038886;87;31801;-72
2022/05/30 03:28:38;;;;;;;12.47;5.12;;;;;;;11.29;61.95;99728.34;2063758;86;33753;-72
2022/05/30 03:31:39;;;;;;;9.30;4.83;;;;;;;11.30;61.92;99729.23;2079294;85;29365;-73
2022/05/30 03:34:41;;;;;;;10.23;4.60;;;;;;;11.31;62.07;99730.46;2063845;86;27744;-73
2022/05/30 03:37:44;;;;;;;6.30;5.17;;;;;;;11.37;62.04;99732.77;2079283;85;28674;-73
2022/05/30 03:40:46;;;;;;;8.10;4.78;;;;;;;11.39;62.10;99728.19;2063694;86;31029;-72
2022/05/30 03:43:47;;;;;;;8.35;4.30;;;;;;;11.45;62.12;99732.30;2079358;85;33034;-74
2022/05/30 03:46:49;;;;;;;8.50;4.80;;;;;;;11.50;62.15;99735.53;2063428;86;29432;-73
2022/05/30 03:50:00;;;;;;;9.08;4.35;;;;;;;11.55;62.22;99744.16;2079349;85;28260;-71
2022/05/30 03:53:05;;;;;;;8.88;4.72;;;;;;;11.58;62.19;99743.13;2033251;87;28720;-71
2022/05/30 03:56:07;;;;;;;7.25;4.90;;;;;;;11.62;62.47;99747.31;2019469;88;31130;-72
2022/05/30 03:59:08;;;;;;;12.85;4.80;;;;;;;11.65;62.26;99747.63;2019393;88;33104;-73
2022/05/30 04:02:10;;;;;;;11.22;5.80;;;;;;;11.68;62.35;99747.41;2018191;88;29320;-75
2022/05/30 04:05:12;;;;;;;13.80;5.22;;;;;;;11.72;62.31;99744.06;2018201;88;27720;-73
2022/05/30 04:08:16;;;;;;;15.65;5.83;;;;;;;11.74;62.41;99743.00;2018845;88;28654;-73
2022/05/30 04:11:17;;;;;;;11.93;6.22;;;;;;;11.77;62.41;99748.18;2018298;88;31075;-72
2022/05/30 04:14:19;;;;;;;9.53;5.72;;;;;;;11.81;62.33;99744.34;2018289;88;33774;-73
2022/05/30 04:17:22;;;;;;;13.05;5.87;;;;;;;11.87;62.50;99743.09;2018222;88;30235;-71
2022/05/30 04:20:24;;;;;;;7.92;5.35;;;;;;;11.94;62.42;99738.19;2023940;85;28222;-72
2022/05/30 04:23:26;;;;;;;6.75;4.70;;;;;;;12.04;62.56;99742.52;2047641;86;28749;-68
2022/05/30 04:26:28;;;;;;;9.18;4.90;;;;;;;12.14;62.56;99743.63;2048655;86;30531;-69
2022/05/30 04:29:30;;;;;;;9.90;4.87;;;;;;;12.20;62.47;99748.61;2050129;86;33151;-67
2022/05/30 04:32:34;;;;;;;9.58;4.65;;;;;;;12.27;62.39;99751.25;2050041;86;30146;-69
2022/05/30 04:35:35;;;;;;;12.85;4.47;;;;;;;12.35;62.35;99746.72;2026598;86;27735;-67
2022/05/30 04:38:37;;;;;;;12.40;4.30;;;;;;;12.41;62.30;99746.33;2050216;86;29448;-67
2022/05/30 04:41:39;;;;;;;5.58;3.80;;;;;;;12.45;62.16;99745.16;2049767;86;31929;-70
2022/05/30 04:44:41;;;;;;;8.63;4.05;;;;;;;12.51;62.16;99747.04;2049611;86;34133;-68
2022/05/30 04:47:46;;;;;;;10.23;4.05;;;;;;;12.56;62.04;99755.20;2049979;86;29343;-70
2022/05/30 04:50:47;;;;;;;5.60;3.67;;;;;;;12.63;62.06;99756.11;2058703;86;27694;-72
2022/05/30 04:53:49;;;;;;;7.00;3.30;;;;;;;12.67;62.04;99754.95;2070924;85;28635;-68
2022/05/30 04:56:52;;;;;;;10.63;3.80;;;;;;;12.72;62.01;99751.48;2070811;86;32189;-69
2022/05/30 04:59:53;;;;;;;8.90;3.65;;;;;;;12.80;61.97;99759.88;2070729;84;33104;-67
2022/05/30 05:02:55;;;;;;;6.15;2.95;;;;;;;12.88;61.84;99756.66;2070423;86;29377;-69
2022/05/30 05:06:04;;;;;;;6.87;3.42;;;;;;;12.95;61.71;99756.63;2070966;86;27650;-68
2022/05/30 05:09:31;;;;;;;6.45;4.33;;;;;;;13.03;61.55;99754.27;2070078;85;27743;-73
2022/05/30 05:12:33;;;;;;;;;;;;;;;13.12;61.39;99753.27;2072967;86;32408;-73
2022/05/30 05:15:35;;;;;;;4.60;2.02;;;;;;;13.20;61.48;99758.49;2070415;86;33263;-71
2022/05/30 05:18:37;;;;;;;6.85;3.42;;;;;;;13.25;61.11;99751.91;2071195;86;29303;-72
2022/05/30 05:21:42;;;;;;;3.75;2.45;;;;;;;13.28;60.87;99757.08;2056995;86;27687;-72
2022/05/30 05:24:44;;;;;;;5.05;2.00;;;;;;;13.31;60.92;99764.47;2049451;86;28699;-73
2022/05/30 05:27:48;;;;;;;5.92;2.60;;;;;;;13.35;60.82;99767.30;2071418;85;31037;-69
2022/05/30 05:30:50;;;;;;;2.58;1.95;;;;;;;13.38;60.69;99768.44;2072138;85;33247;-68
2022/05/30 05:33:54;;;;;;;3.42;2.20;;;;;;;13.42;60.63;99762.38;2072050;85;29313;-68
2022/05/30 05:36:56;;;;;;;7.67;2.25;;;;;;;13.46;60.31;99766.59;2072084;85;28222;-68
2022/05/30 05:39:57;;;;;;;4.37;2.02;;;;;;;13.53;60.19;99764.32;2072051;85;29467;-69
2022/05/30 05:42:59;;;;;;;5.22;2.22;;;;;;;13.59;60.12;99765.71;2071890;85;31848;-73
2022/05/30 05:46:01;;;;;;;3.33;2.15;;;;;;;13.68;59.58;99761.88;2071813;85;33691;-73
2022/05/30 05:49:04;;;;;;;6.47;2.00;;;;;;;13.74;59.52;99765.11;2071769;85;29340;-73
2022/05/30 05:52:06;;;;;;;2.65;1.72;;;;;;;13.88;59.39;99766.33;2045075;85;27681;-73
2022/05/30 05:55:09;;;;;;;4.12;1.92;;;;;;;14.12;59.73;99769.06;2042423;87;28657;-75
2022/05/30 05:58:11;;;;;;;5.50;1.80;;;;;;;14.46;59.45;99762.16;2042374;86;31910;-73
2022/05/30 06:01:20;;;;;;;4.28;1.85;;;;;;;14.79;59.02;99763.31;2042355;86;32952;-74
2022/05/30 06:04:22;;;;;;;3.95;1.95;;;;;;;15.09;58.73;99760.58;2042243;86;29331;-76
2022/05/30 06:07:24;;;;;;;4.92;2.08;;;;;;;15.41;58.56;99763.95;2042063;87;27705;-75
2022/05/30 06:10:27;;;;;;;5.17;2.33;;;;;;;15.69;58.11;99760.44;2043503;85;27790;-76
2022/05/30 06:13:29;;;;;;;5.30;2.02;;;;;;;16.04;57.99;99762.17;2045268;87;31062;-77
2022/05/30 06:16:37;;;;;;;5.97;2.73;;;;;;;16.46;57.75;99763.66;2016000;88;28136;-76
2022/05/30 06:19:40;;;;;;;4.75;2.65;;;;;;;16.85;57.03;99756.38;2018781;87;29340;-75
2022/05/30 06:22:42;;;;;;;7.97;2.95;;;;;;;17.30;56.43;99756.14;2045347;87;27786;-72
2022/05/30 06:25:44;;;;;;;4.95;2.98;;;;;;;18.14;56.52;99752.05;2044913;85;28692;-74
2022/05/30 06:28:46;;;;;;;4.67;3.02;;;;;;;19.21;54.48;99749.05;2017313;88;30554;-72
2022/05/30 06:31:48;;;;;;;5.08;3.77;;;;;;;19.72;53.72;99747.75;2017064;88;33942;-72
2022/05/30 06:34:51;;;;;;;7.55;3.40;;;;;;;19.88;53.04;99753.08;2017118;88;30103;-71
2022/05/30 06:37:52;;;;;;;9.90;4.37;;;;;;;19.97;52.20;99756.24;1983421;89;27819;-72
2022/05/30 06:40:54;;;;;;;7.65;4.47;;;;;;;19.92;51.20;99754.50;2031496;87;28709;-72
2022/05/30 06:44:02;;;;;;;9.33;5.17;;;;;;;19.86;51.78;99757.77;2046060;87;31027;-72
2022/05/30 06:47:07;;;;;;;8.65;4.25;;;;;;;19.77;51.10;99760.05;2046070;87;33137;-71
2022/05/30 06:50:09;;;;;;;5.53;3.92;;;;;;;19.56;51.04;99770.63;2045711;87;29366;-73
2022/05/30 06:53:11;;;;;;;10.68;3.95;;;;;;;19.36;50.49;99777.98;2046209;87;27705;-74
2022/05/30 06:56:15;;;;;;;6.40;3.08;;;;;;;19.01;50.25;99783.52;2017727;88;28734;-72
2022/05/30 06:59:17;;;;;;;5.58;2.85;;;;;;;18.57;49.55;99790.16;2046181;87;31016;-73
2022/05/30 07:02:20;;;;;;;10.10;3.70;;;;;;;18.14;49.35;99789.50;2046297;87;33065;-72
2022/05/30 07:05:22;;;;;;;7.45;2.85;;;;;;;17.82;49.80;99797.77;2045737;87;30522;-72
2022/05/30 07:08:24;;;;;;;5.40;2.95;;;;;;;17.61;50.05;99792.77;2046155;87;27606;-74
2022/05/30 07:11:26;;;;;;;8.20;2.95;;;;;;;17.47;50.04;99794.44;2045752;87;30036;-70
2022/05/30 07:14:30;;;;;;;4.67;2.75;;;;;;;17.35;50.11;99798.22;2046149;87;32100;-72
2022/05/30 07:17:31;;;;;;;7.33;2.60;;;;;;;17.24;50.37;99796.43;2046134;87;33126;-73
2022/05/30 07:20:33;;;;;;;7.58;2.90;;;;;;;17.21;50.35;99793.50;2018141;88;29320;-72
2022/05/30 07:23:37;;;;;;;6.78;2.80;;;;;;;17.16;50.69;99793.91;2046112;87;28179;-73
2022/05/30 07:26:39;;;;;;;5.37;2.25;;;;;;;17.14;50.75;99798.59;2049465;85;29888;-73
2022/05/30 07:29:41;;;;;;;5.20;2.50;;;;;;;17.11;50.82;99800.70;2106338;84;31122;-72
2022/05/30 07:32:43;;;;;;;8.13;2.60;;;;;;;17.16;51.21;99802.50;2106580;84;33090;-73
2022/05/30 07:35:45;;;;;;;7.37;2.83;;;;;;;17.25;51.30;99798.15;2106733;84;29370;-71
2022/05/30 07:38:48;;;;;;;4.90;2.47;;;;;;;17.37;51.16;99807.07;2106893;84;27706;-71
2022/05/30 07:41:50;;;;;;;9.10;3.05;;;;;;;17.52;51.18;99800.83;2106614;84;28723;-73
2022/05/30 07:44:52;;;;;;;5.33;2.95;;;;;;;17.74;51.05;99807.94;2106549;84;30848;-71
2022/05/30 07:47:56;;;;;;;5.20;2.85;;;;;;;17.88;50.75;99807.57;2106648;84;32937;-71
2022/05/30 07:50:59;;;;;;;12.45;2.47;;;;;;;17.95;50.36;99810.59;2091990;84;29524;-72
2022/05/30 07:54:01;;;;;;;5.75;2.45;;;;;;;18.03;50.30;99809.94;2082275;84;27703;-71
2022/05/30 07:57:05;;;;;;;5.15;2.45;;;;;;;18.12;50.30;99813.68;2081948;85;28691;-72
2022/05/30 08:00:10;;;;;;;4.47;2.58;;;;;;;18.12;49.82;99819.95;2082329;85;31713;-73
2022/05/30 08:03:14;;;;;;;5.55;2.70;;;;;;;18.13;49.66;99818.95;2082264;85;32989;-73
2022/05/30 08:06:21;;;;;;;4.95;2.25;;;;;;;18.13;49.83;99814.05;2082252;85;29353;-72
2022/05/30 08:09:23;;;;;;;4.97;2.50;;;;;;;18.15;49.84;99817.48;2082110;85;27687;-72
2022/05/30 08:12:25;;;;;;;5.37;2.12;;;;;;;18.21;49.64;99823.20;2082251;85;28662;-71
2022/05/30 08:15:28;;;;;;;4.50;3.10;;;;;;;18.19;49.46;99825.20;2082088;85;31904;-73
2022/05/30 08:18:31;;;;;;;4.45;2.85;;;;;;;18.19;49.44;99832.48;2082187;85;33025;-73
2022/05/30 08:21:33;;;;;;;8.05;2.50;;;;;;;18.19;49.48;99821.64;2103790;84;29179;-73
2022/05/30 08:24:38;;;;;;;7.58;3.62;;;;;;;18.19;49.68;99823.84;2106728;84;27721;-73
2022/05/30 08:27:41;;;;;;;5.37;2.90;;;;;;;18.21;49.87;99823.69;2104360;84;28757;-70
2022/05/30 08:30:43;;;;;;;4.62;2.67;;;;;;;18.21;50.20;99824.56;2100838;84;32459;-72
2022/05/30 08:33:45;;;;;;;6.17;2.42;;;;;;;18.19;50.32;99829.27;2091143;84;33516;-70
2022/05/30 08:36:46;;;;;;;5.25;3.10;;;;;;;18.20;50.48;99826.91;2034589;87;30177;-74
2022/05/30 08:43:14;;;;;;;4.65;2.65;;;;;;;18.21;50.23;99835.41;2030829;87;28693;-72
2022/05/30 08:46:30;;;;;;;6.65;2.42;;;;;;;18.27;50.23;99835.87;2040677;87;31709;-77
2022/05/30 08:49:50;;;;;;;7.60;3.42;;;;;;;18.36;50.49;99835.90;2031337;87;32433;-71
2022/05/30 08:52:59;;;;;;;5.33;2.75;;;;;;;18.55;50.19;99838.27;2033260;85;29372;-71
2022/05/30 08:56:27;;;;;;;5.00;3.02;;;;;;;18.73;50.02;99837.59;2059791;86;27656;-73
2022/05/30 09:00:05;;;;;;;6.20;2.67;;;;;;;18.93;50.20;99839.34;2059879;86;29623;-70
2022/05/30 09:03:31;;;;;;;7.47;2.50;;;;;;;19.35;50.03;99831.95;1941895;91;31052;-70
2022/05/30 09:06:44;;;;;;;3.08;2.20;;;;;;;19.71;49.75;99827.58;1916315;92;32972;-68
2022/05/30 09:09:55;;;;;;;4.97;2.72;;;;;;;20.20;49.20;99832.00;1916264;92;29347;-70
2022/05/30 09:13:06;;;;;;;5.85;2.67;;;;;;;20.64;49.21;99828.09;1916435;92;27805;-70
2022/05/30 09:16:37;;;;;;;6.42;2.70;;;;;;;21.09;48.12;99832.33;1916207;92;28685;-68
2022/05/30 09:19:41;;;;;;;5.42;2.62;;;;;;;21.47;48.24;99831.59;1918849;90;32296;-69
2022/05/30 09:22:44;;;;;;;6.77;2.43;;;;;;;21.73;46.80;99837.62;1916619;90;33028;-72
2022/05/30 09:25:57;;;;;;;4.22;2.35;;;;;;;21.87;46.61;99837.52;1916136;92;28946;-68
2022/05/30 09:29:42;;;;;;;3.85;2.60;;;;;;;22.07;45.90;99837.29;1937642;90;27774;-69
2022/05/30 09:33:32;;;;;;;4.03;2.45;;;;;;;22.26;45.53;99834.31;1946045;91;28725;-69
2022/05/30 09:36:39;;;;;;;4.45;2.92;;;;;;;22.46;45.75;99839.02;1946612;91;31907;-68
2022/05/30 09:39:47;;;;;;;4.42;2.70;;;;;;;22.34;44.58;99836.23;1997254;88;32980;-72
2022/05/30 09:42:55;;;;;;;5.87;2.85;;;;;;;22.23;44.64;99836.00;2011553;88;29320;-71
2022/05/30 09:46:16;;;;;;;4.03;2.55;;;;;;;22.06;44.55;99839.67;2016784;86;27829;-70
2022/05/30 09:49:25;;;;;;;4.35;2.42;;;;;;;21.79;44.15;99837.48;2014539;88;29534;-69
2022/05/30 09:52:39;;;;;;;5.92;2.60;;;;;;;21.53;44.23;99844.60;2040713;87;32017;-69
2022/05/30 09:55:51;;;;;;;;;;;;;;;21.42;44.49;99843.51;2050213;86;32956;-67
2022/05/30 09:59:06;;;;;;;9.00;3.00;;;;;;;21.33;44.33;99839.86;2047659;86;29369;-68
2022/05/30 10:02:25;;;;;;;4.85;2.50;;;;;;;21.33;44.73;99838.98;2047639;87;28303;-66
2022/05/30 10:05:31;;;;;;;5.70;2.65;;;;;;;21.29;44.28;99838.45;1978024;89;29196;-62
2022/05/30 10:08:33;;;;;;;5.08;2.72;;;;;;;21.28;43.57;99836.73;1982536;89;31176;-62
2022/05/30 10:11:36;;;;;;;3.67;1.60;;;;;;;21.18;43.29;99834.10;1982620;89;33899;-66
2022/05/30 10:14:40;;;;;;;5.83;2.30;;;;;;;20.99;42.72;99835.62;1982785;89;29554;-61
2022/05/30 10:17:42;;;;;;;3.37;1.85;;;;;;;20.93;42.59;99834.37;1982990;89;27744;-62
2022/05/30 10:21:17;;;;;;;4.15;2.10;;;;;;;20.87;42.83;99837.22;1982667;89;28505;-62
2022/05/30 10:28:31;;;;;;;3.05;1.65;;;;;;;20.73;42.78;99818.67;1983054;88;33933;-61
2022/05/30 10:31:37;;;;;;;;;;;;;;;20.73;42.66;99830.91;2084269;85;29457;-60
2022/05/30 10:35:02;;;;;;;2.92;1.77;;;;;;;20.59;42.14;99816.83;2082340;85;28129;-61
2022/05/30 10:38:22;;;;;;;6.37;1.72;;;;;;;20.43;42.14;99820.20;2077669;85;29423;-63
2022/05/30 10:41:44;;;;;;;5.58;2.02;;;;;;;20.42;42.26;99825.30;2084993;85;32197;-65
2022/05/30 10:44:51;;;;;;;3.10;1.80;;;;;;;20.42;42.08;99826.66;2084977;85;33881;-62
2022/05/30 10:47:55;;;;;;;5.17;1.80;;;;;;;20.37;42.03;99827.61;2084907;85;30563;-63
2022/05/30 10:51:02;;;;;;;7.08;1.70;;;;;;;20.41;41.95;99829.02;2018074;88;27717;-61
2022/05/30 10:54:31;;;;;;;3.25;1.30;;;;;;;20.37;41.79;99834.41;2085433;85;28694;-65
2022/05/30 10:57:57;;;;;;;1.30;1.20;;;;;;;20.22;41.65;99823.68;2077933;85;31077;-69
2022/05/30 11:01:16;;;;;;;2.12;1.27;;;;;;;20.28;41.51;99819.84;2076991;85;32976;-70
2022/05/30 11:04:45;;;;;;;2.77;1.45;;;;;;;20.41;41.12;99814.58;1979142;88;30425;-71
2022/05/30 11:08:08;;;;;;;2.37;1.20;;;;;;;20.58;40.68;99812.39;1979047;89;27732;-70
2022/05/30 11:11:47;;;;;;;2.42;1.47;;;;;;;20.72;41.38;99818.31;1978911;89;28744;-70
2022/05/30 11:15:13;;;;;;;2.17;1.50;;;;;;;20.92;41.40;99814.48;1975016;89;31925;-69
2022/05/30 11:18:42;;;;;;;2.83;1.57;;;;;;;21.09;40.70;99818.70;1979002;89;33043;-69
2022/05/30 11:22:15;;;;;;;2.65;1.57;;;;;;;21.28;40.54;99817.67;1978918;89;30002;-69
2022/05/30 11:25:40;;;;;;;4.78;1.02;;;;;;;21.53;40.72;99813.75;1979100;89;27798;-69
2022/05/30 11:28:54;;;;;;;1.20;1.00;;;;;;;21.84;40.29;99816.89;1970684;89;28675;-69
2022/05/30 11:32:27;;;;;;;3.00;1.02;;;;;;;22.12;39.63;99814.48;1968540;89;31181;-70
2022/05/30 11:35:36;;;;;;;2.30;0.90;;;;;;;22.29;39.16;99822.20;1998399;89;32522;-70
2022/05/30 11:39:03;;;;;;;3.58;1.32;;;;;;;22.30;38.57;99823.92;1998458;89;30032;-70
2022/05/30 11:42:34;;;;;;;2.58;1.60;;;;;;;22.22;38.64;99826.63;2035142;87;28246;-70
2022/05/30 11:46:02;;;;;;;4.92;1.02;;;;;;;22.29;38.66;99817.63;2039247;86;29058;-69
2022/05/30 11:49:22;;;;;;;1.75;1.00;;;;;;;22.48;38.26;99824.36;2039264;87;31332;-68
2022/05/30 11:53:00;;;;;;;1.90;1.12;;;;;;;22.49;37.73;99820.61;2038808;87;33836;-68
2022/05/30 11:56:26;;;;;;;1.35;1.25;;;;;;;22.53;37.63;99811.91;2039272;87;29348;-69
2022/05/30 11:59:48;;;;;;;1.30;0.90;;;;;;;22.61;37.67;99809.72;2039565;86;27631;-69
2022/05/30 12:03:01;;;;;;;1.12;0.90;;;;;;;22.53;37.77;99811.91;2040610;87;28765;-67
2022/05/30 12:06:37;;;;;;;1.57;1.17;;;;;;;22.44;37.14;99812.92;2040908;87;31089;-68
2022/05/30 12:10:02;;;;;;;2.50;0.90;;;;;;;22.27;36.22;99814.20;2040929;86;34219;-68
2022/05/30 12:13:49;;;;;;;2.52;1.00;;;;;;;21.80;36.68;99808.67;2041490;87;29338;-69
2022/05/30 12:16:59;;;;;;;2.65;1.12;;;;;;;21.58;36.96;99812.77;2041391;87;27660;-69
2022/05/30 12:23:49;;;;;;;3.37;1.30;;;;;;;21.31;36.93;99808.31;1954224;91;32073;-69
2022/05/30 12:27:05;;;;;;;1.25;1.07;;;;;;;21.10;37.29;99812.22;1954538;91;32975;-68
2022/05/30 12:30:45;;;;;;;0.70;0.65;;;;;;;21.03;37.37;99807.07;1974909;88;30214;-67
2022/05/30 12:33:51;;;;;;;1.67;0.98;;;;;;;21.02;37.23;99803.99;2006935;88;27854;-69
2022/05/30 12:36:53;;;;;;;1.50;0.70;;;;;;;20.80;37.06;99817.05;1973717;90;28738;-69
2022/05/30 12:39:59;;;;;;;2.98;1.00;;;;;;;20.60;36.99;99817.16;1941640;91;31864;-69
2022/05/30 12:43:16;;;;;;;3.15;0.93;;;;;;;20.53;37.28;99816.55;1973902;90;33116;-69
2022/05/30 12:46:25;;;;;;;1.25;0.80;;;;;;;20.47;37.01;99809.38;2003462;88;29335;-70
2022/05/30 12:49:33;;;;;;;1.37;0.65;;;;;;;20.40;37.42;99813.70;1954794;90;27733;-68
2022/05/30 12:52:43;;;;;;;3.58;1.30;;;;;;;20.29;36.87;99818.00;1931968;92;29581;-68
2022/05/30 12:55:52;;;;;;;1.20;0.80;;;;;;;20.21;37.36;99815.16;1930120;92;31239;-68
2022/05/30 12:59:08;;;;;;;2.72;1.35;;;;;;;20.26;37.46;99819.66;1951846;87;33043;-69
2022/05/30 13:02:11;;;;;;;1.98;1.10;;;;;;;20.27;37.20;99820.85;2020016;87;30081;-68
2022/05/30 13:05:28;;;;;;;1.22;0.80;;;;;;;20.32;37.43;99825.86;2059149;84;27812;-69
2022/05/30 13:08:54;;;;;;;0.78;0.70;;;;;;;20.37;37.04;99826.24;2102682;84;28655;-68
2022/05/30 13:12:15;;;;;;;3.37;0.95;;;;;;;20.18;36.87;99806.81;2106164;84;31041;-69
2022/05/30 13:15:25;;;;;;;0.85;0.80;;;;;;;19.95;36.70;99819.94;2106063;84;32946;-68
2022/05/30 13:18:27;;;;;;;3.77;1.77;;;;;;;19.77;36.86;99813.89;2106117;84;29495;-69
2022/05/30 13:21:29;;;;;;;2.87;1.02;;;;;;;19.74;37.41;99811.46;2043725;87;27681;-68
2022/05/30 13:24:38;;;;;;;1.20;0.88;;;;;;;19.64;37.57;99814.72;2062146;84;28667;-68
2022/05/30 13:27:40;;;;;;;4.58;1.00;;;;;;;19.44;37.76;99812.05;2106190;84;31773;-68
2022/05/30 13:30:42;;;;;;;1.90;1.20;;;;;;;19.30;38.04;99820.65;2110140;83;32972;-69
2022/05/30 13:33:53;;;;;;;4.62;1.22;;;;;;;19.23;38.00;99813.58;2036811;87;30460;-69
2022/05/30 13:37:01;;;;;;;1.45;0.90;;;;;;;19.21;38.24;99810.15;2050865;86;27690;-70
2022/05/30 13:40:14;;;;;;;1.95;0.90;;;;;;;19.15;38.27;99808.00;2072675;85;29329;-69
2022/05/30 13:43:33;;;;;;;3.05;1.45;;;;;;;19.06;38.40;99813.30;2072841;85;31758;-69
2022/05/30 13:46:45;;;;;;;1.72;1.20;;;;;;;19.13;39.00;99814.94;2072342;85;32314;-69
2022/05/30 13:49:53;;;;;;;1.60;0.93;;;;;;;19.27;38.51;99815.02;2049720;85;29385;-69
2022/05/30 13:52:55;;;;;;;2.08;1.00;;;;;;;19.41;38.28;99820.48;2064660;85;27842;-69
2022/05/30 13:56:28;;;;;;;1.60;0.75;;;;;;;19.49;38.15;99821.11;2003895;86;29723;-69
2022/05/30 13:59:46;;;;;;;3.42;1.05;;;;;;;19.55;38.31;99816.45;2027691;87;31444;-69
2022/05/30 14:02:49;;;;;;;3.02;0.88;;;;;;;19.57;38.16;99818.53;2017284;87;33087;-70
2022/05/30 14:05:51;;;;;;;4.83;1.10;;;;;;;19.58;38.06;99817.02;2082051;85;29336;-68
2022/05/30 14:08:53;;;;;;;2.85;0.88;;;;;;;19.53;38.13;99818.46;2081939;85;27803;-69
2022/05/30 14:12:01;;;;;;;3.05;2.55;;;;;;;19.49;37.84;99819.27;2081962;85;29293;-67
2022/05/30 14:15:26;;;;;;;1.98;1.00;;;;;;;19.41;37.54;99820.00;2081942;85;31028;-68
2022/05/30 14:18:48;;;;;;;1.40;1.12;;;;;;;19.33;37.82;99825.80;2082395;85;33048;-69
2022/05/30 14:21:54;;;;;;;3.47;2.70;;;;;;;19.28;37.83;99827.08;2082025;85;29293;-69
2022/05/30 14:24:59;;;;;;;2.02;1.02;;;;;;;19.37;37.92;99823.99;2106383;84;27717;-69
2022/05/30 14:28:08;;;;;;;1.60;1.27;;;;;;;19.48;37.73;99828.41;2106484;84;28706;-68
2022/05/30 14:31:14;;;;;;;3.60;1.10;;;;;;;19.54;38.06;99831.89;2106280;84;31845;-69
2022/05/30 14:34:18;;;;;;;4.28;1.20;;;;;;;19.61;37.80;99849.81;2106397;84;33005;-69
2022/05/30 14:37:33;;;;;;;4.62;2.20;;;;;;;19.62;38.38;99863.77;2106798;84;33656;-69
2022/05/30 14:40:50;;;;;;;2.02;1.50;;;;;;;19.57;38.91;99868.28;2106898;84;28227;-69
2022/05/30 14:43:55;;;;;;;5.40;1.30;;;;;;;19.36;38.96;99873.89;2087498;84;28703;-70
2022/05/30 14:46:57;;;;;;;3.95;1.60;;;;;;;19.22;39.47;99880.59;2106816;84;35180;-70
2022/05/30 14:50:07;;;;;;;4.20;2.10;;;;;;;19.09;39.61;99885.45;2106588;84;33804;-67
2022/05/30 14:53:17;;;;;;;4.72;1.65;;;;;;;19.01;39.94;99890.23;2094554;84;29342;-68
2022/05/30 14:56:23;;;;;;;8.45;1.60;;;;;;;18.92;40.18;99891.91;2081923;85;27705;-68
2022/05/30 14:59:36;;;;;;;2.92;1.75;;;;;;;18.81;40.44;99899.67;2081720;85;28722;-68
2022/05/30 15:05:59;;;;;;;3.77;1.60;;;;;;;18.60;41.15;99900.28;2082258;85;33832;-68
2022/05/30 15:09:01;;;;;;;4.10;2.02;;;;;;;18.69;41.56;99900.79;2082316;85;29330;-68
2022/05/30 15:12:03;;;;;;;3.42;1.60;;;;;;;18.74;41.46;99894.94;2082412;85;27699;-69